createdAt,value
2022-11-26T00:00:14.300Z,1020.39
2022-11-26T00:01:14.274Z,1020.40
2022-11-26T00:02:14.370Z,1020.43
2022-11-26T00:03:14.373Z,1020.43
2022-11-26T00:04:14.239Z,1020.40
2022-11-26T00:05:14.227Z,1020.46
2022-11-26T00:06:14.211Z,1020.46
2022-11-26T00:07:14.253Z,1020.48
2022-11-26T00:08:14.202Z,1020.51
2022-11-26T00:09:14.194Z,1020.51
2022-11-26T00:10:14.164Z,1020.51
2022-11-26T00:11:14.171Z,1020.51
2022-11-26T00:12:14.142Z,1020.54
2022-11-26T00:13:14.161Z,1020.53
2022-11-26T00:14:14.123Z,1020.57
2022-11-26T00:15:14.113Z,1020.56
2022-11-26T00:16:14.285Z,1020.58
2022-11-26T00:17:14.089Z,1020.53
2022-11-26T00:18:14.110Z,1020.56
2022-11-26T00:19:14.068Z,1020.52
2022-11-26T00:20:14.066Z,1020.59
2022-11-26T00:21:14.062Z,1020.55
2022-11-26T00:22:14.043Z,1020.62
2022-11-26T00:23:14.049Z,1020.61
2022-11-26T00:24:14.024Z,1020.69
2022-11-26T00:25:14.011Z,1020.67
2022-11-26T00:26:13.984Z,1020.71
2022-11-26T00:27:13.989Z,1020.75
2022-11-26T00:28:13.977Z,1020.79
2022-11-26T00:29:13.968Z,1020.79
2022-11-26T00:30:13.967Z,1020.79
2022-11-26T00:31:14.026Z,1020.74
2022-11-26T00:32:14.040Z,1020.78
2022-11-26T00:33:13.917Z,1020.80
2022-11-26T00:34:13.919Z,1020.78
2022-11-26T00:35:13.899Z,1020.85
2022-11-26T00:36:14.845Z,1020.80
2022-11-26T00:37:13.865Z,1020.78
2022-11-26T00:38:13.867Z,1020.82
2022-11-26T00:39:13.868Z,1020.82
2022-11-26T00:40:13.837Z,1020.83
2022-11-26T00:41:13.830Z,1020.83
2022-11-26T00:42:13.813Z,1020.82
2022-11-26T00:43:13.793Z,1020.85
2022-11-26T00:44:13.800Z,1020.86
2022-11-26T00:45:13.797Z,1020.88
2022-11-26T00:46:13.853Z,1020.90
2022-11-26T00:47:13.754Z,1020.90
2022-11-26T00:48:13.772Z,1020.93
2022-11-26T00:49:13.758Z,1020.97
2022-11-26T00:50:13.710Z,1020.99
2022-11-26T00:51:13.718Z,1020.95
2022-11-26T00:52:13.700Z,1020.97
2022-11-26T00:53:13.693Z,1020.97
2022-11-26T00:54:13.682Z,1020.99
2022-11-26T00:55:13.663Z,1021.00
2022-11-26T00:56:13.644Z,1021.01
2022-11-26T00:57:13.636Z,1021.01
2022-11-26T00:58:13.619Z,1021.04
2022-11-26T00:59:13.628Z,1021.04
2022-11-26T01:00:13.601Z,1021.04
2022-11-26T01:01:13.683Z,1021.01
2022-11-26T01:02:13.623Z,1021.03
2022-11-26T01:03:13.568Z,1021.09
2022-11-26T01:04:13.607Z,1021.11
2022-11-26T01:05:13.546Z,1021.11
2022-11-26T01:06:13.546Z,1021.11
2022-11-26T01:07:13.572Z,1021.19
2022-11-26T01:08:13.524Z,1021.24
2022-11-26T01:09:13.527Z,1021.26
2022-11-26T01:10:13.483Z,1021.27
2022-11-26T01:11:13.493Z,1021.28
2022-11-26T01:12:13.463Z,1021.29
2022-11-26T01:13:13.473Z,1021.29
2022-11-26T01:14:13.459Z,1021.34
2022-11-26T01:15:13.460Z,1021.36
2022-11-26T01:16:13.516Z,1021.38
2022-11-26T01:17:13.415Z,1021.39
2022-11-26T01:18:13.397Z,1021.41
2022-11-26T01:19:13.422Z,1021.39
2022-11-26T01:20:13.405Z,1021.40
2022-11-26T01:21:13.363Z,1021.42
2022-11-26T01:22:13.360Z,1021.34
2022-11-26T01:23:13.353Z,1021.37
2022-11-26T01:24:13.323Z,1021.37
2022-11-26T01:25:13.341Z,1021.35
2022-11-26T01:26:13.319Z,1021.38
2022-11-26T01:27:13.290Z,1021.41
2022-11-26T01:28:13.282Z,1021.40
2022-11-26T01:29:13.266Z,1021.44
2022-11-26T01:30:13.271Z,1021.45
2022-11-26T01:31:13.303Z,1021.42
2022-11-26T01:32:13.250Z,1021.47
2022-11-26T01:33:13.276Z,1021.45
2022-11-26T01:34:13.370Z,1021.51
2022-11-26T01:35:13.200Z,1021.51
2022-11-26T01:36:13.226Z,1021.49
2022-11-26T01:37:13.179Z,1021.51
2022-11-26T01:38:13.174Z,1021.46
2022-11-26T01:39:13.155Z,1021.46
2022-11-26T01:40:13.148Z,1021.47
2022-11-26T01:41:13.146Z,1021.50
2022-11-26T01:42:13.124Z,1021.50
2022-11-26T01:43:13.111Z,1021.52
2022-11-26T01:44:13.106Z,1021.52
2022-11-26T01:45:13.090Z,1021.54
2022-11-26T01:46:13.199Z,1021.58
2022-11-26T01:47:13.063Z,1021.57
2022-11-26T07:19:42.328Z,1024.13
2022-11-26T07:20:42.279Z,1024.12
2022-11-26T07:21:42.259Z,1024.14
2022-11-26T07:22:42.269Z,1024.11
2022-11-26T07:23:42.239Z,1024.12
2022-11-26T07:24:42.237Z,1024.14
2022-11-26T07:25:42.231Z,1024.12
2022-11-26T07:26:42.200Z,1024.15
2022-11-26T07:27:42.210Z,1024.20
2022-11-26T07:28:42.177Z,1024.17
2022-11-26T07:29:42.185Z,1024.20
2022-11-26T07:30:42.158Z,1024.20
2022-11-26T07:31:42.244Z,1024.23
2022-11-26T07:32:42.133Z,1024.24
2022-11-26T07:33:42.143Z,1024.25
2022-11-26T07:34:42.124Z,1024.23
2022-11-26T07:35:42.226Z,1024.23
2022-11-26T07:36:42.103Z,1024.25
2022-11-26T07:37:42.092Z,1024.24
2022-11-26T07:38:42.083Z,1024.25
2022-11-26T07:39:42.077Z,1024.23
2022-11-26T07:40:42.060Z,1024.27
2022-11-26T07:41:42.037Z,1024.20
2022-11-26T07:42:42.021Z,1024.20
2022-11-26T07:43:42.029Z,1024.22
2022-11-26T07:44:42.031Z,1024.26
2022-11-26T07:45:42.052Z,1024.26
2022-11-26T07:46:42.089Z,1024.26
2022-11-26T07:47:41.983Z,1024.30
2022-11-26T07:48:41.953Z,1024.30
2022-11-26T07:49:41.976Z,1024.26
2022-11-26T07:50:41.948Z,1024.23
2022-11-26T07:51:41.948Z,1024.21
2022-11-26T07:52:41.913Z,1024.23
2022-11-26T07:53:41.901Z,1024.22
2022-11-26T07:54:41.932Z,1024.20
2022-11-26T07:55:41.894Z,1024.21
2022-11-26T07:56:41.882Z,1024.22
2022-11-26T07:57:41.858Z,1024.23
2022-11-26T07:58:41.847Z,1024.24
2022-11-26T07:59:41.864Z,1024.25
2022-11-26T08:00:41.832Z,1024.24
2022-11-26T08:01:41.986Z,1024.22
2022-11-26T08:02:41.902Z,1024.24
2022-11-26T08:03:41.804Z,1024.25
2022-11-26T08:04:41.791Z,1024.24
2022-11-26T08:05:41.784Z,1024.30
2022-11-26T08:06:41.754Z,1024.31
2022-11-26T08:07:41.848Z,1024.31
2022-11-26T08:08:41.745Z,1024.29
2022-11-26T08:09:41.737Z,1024.30
2022-11-26T08:10:41.728Z,1024.30
2022-11-26T08:11:41.701Z,1024.23
2022-11-26T08:12:41.700Z,1024.21
2022-11-26T08:13:41.680Z,1024.19
2022-11-26T08:14:41.665Z,1024.16
2022-11-26T08:15:41.677Z,1024.18
2022-11-26T08:16:41.764Z,1024.15
2022-11-26T08:17:41.646Z,1024.15
2022-11-26T08:18:41.619Z,1024.14
2022-11-26T08:19:41.616Z,1024.17
2022-11-26T08:20:41.610Z,1024.15
2022-11-26T08:21:41.616Z,1024.19
2022-11-26T08:22:41.581Z,1024.17
2022-11-26T08:23:41.620Z,1024.16
2022-11-26T08:24:41.677Z,1024.21
2022-11-26T08:25:53.468Z,1024.21
2022-11-26T08:26:44.481Z,1024.19
2022-11-26T08:27:41.536Z,1024.21
2022-11-26T08:28:41.508Z,1024.22
2022-11-26T08:29:41.503Z,1024.20
2022-11-26T08:30:41.484Z,1024.21
2022-11-26T08:31:45.585Z,1024.21
2022-11-26T08:32:42.478Z,1024.18
2022-11-26T08:33:41.455Z,1024.27
2022-11-26T08:34:41.520Z,1024.24
2022-11-26T08:36:05.400Z,1024.25
2022-11-26T08:36:42.429Z,1024.27
2022-11-26T08:37:42.673Z,1024.29
2022-11-26T08:38:41.398Z,1024.34
2022-11-26T08:39:41.424Z,1024.34
2022-11-26T08:40:41.384Z,1024.33
2022-11-26T08:41:41.399Z,1024.34
2022-11-26T08:42:41.373Z,1024.37
2022-11-26T08:44:10.205Z,1024.40
2022-11-26T08:44:42.344Z,1024.41
2022-11-26T08:45:41.321Z,1024.42
2022-11-26T08:46:41.464Z,1024.40
2022-11-26T08:47:41.331Z,1024.41
2022-11-26T08:48:41.306Z,1024.43
2022-11-26T08:49:41.288Z,1024.41
2022-11-26T08:50:41.261Z,1024.42
2022-11-26T08:51:41.253Z,1024.38
2022-11-26T08:52:41.266Z,1024.37
2022-11-26T08:53:41.243Z,1024.34
2022-11-26T08:54:45.099Z,1024.34
2022-11-26T08:55:59.805Z,1024.33
2022-11-26T08:56:42.196Z,1024.34
2022-11-26T08:57:41.210Z,1024.37
2022-11-26T08:58:41.168Z,1024.30
2022-11-26T08:59:41.163Z,1024.33
2022-11-26T09:00:41.151Z,1024.30
2022-11-26T09:01:41.218Z,1024.34
2022-11-26T09:02:41.208Z,1024.35
2022-11-26T09:03:41.140Z,1024.35
2022-11-26T09:04:41.496Z,1024.32
2022-11-26T09:05:41.107Z,1024.30
2022-11-26T09:06:41.079Z,1024.30
2022-11-26T09:07:45.205Z,1024.34
2022-11-26T09:08:42.070Z,1024.37
2022-11-26T09:09:41.052Z,1024.36
2022-11-26T09:10:41.035Z,1024.38
2022-11-26T09:11:41.061Z,1024.40
2022-11-26T09:12:41.012Z,1024.41
2022-11-26T09:13:41.006Z,1024.43
2022-11-26T09:14:41.406Z,1024.45
2022-11-26T09:15:40.982Z,1024.49
2022-11-26T09:16:41.045Z,1024.52
2022-11-26T09:17:40.961Z,1024.54
2022-11-26T09:18:40.944Z,1024.56
2022-11-26T09:19:40.982Z,1024.58
2022-11-26T09:20:40.922Z,1024.59
2022-11-26T09:21:40.927Z,1024.60
2022-11-26T09:22:40.918Z,1024.63
2022-11-26T09:23:40.892Z,1024.59
2022-11-26T09:24:41.095Z,1024.62
2022-11-26T09:25:40.884Z,1024.63
2022-11-26T09:26:40.874Z,1024.65
2022-11-26T09:27:40.871Z,1024.68
2022-11-26T09:28:40.832Z,1024.66
2022-11-26T09:29:40.851Z,1024.66
2022-11-26T09:30:40.816Z,1024.68
2022-11-26T09:31:55.299Z,1024.68
2022-11-26T09:32:41.859Z,1024.68
2022-11-26T09:33:40.793Z,1024.68
2022-11-26T09:34:41.415Z,1024.67
2022-11-26T09:35:40.765Z,1024.66
2022-11-26T09:36:40.758Z,1024.68
2022-11-26T09:37:40.735Z,1024.69
2022-11-26T09:38:40.724Z,1024.67
2022-11-26T09:39:40.729Z,1024.69
2022-11-26T09:40:40.704Z,1024.68
2022-11-26T09:41:40.716Z,1024.69
2022-11-26T09:42:40.682Z,1024.68
2022-11-26T09:43:40.703Z,1024.67
2022-11-26T09:44:41.044Z,1024.66
2022-11-26T09:45:40.677Z,1024.65
2022-11-26T09:46:50.802Z,1024.67
2022-11-26T09:47:41.624Z,1024.69
2022-11-26T09:48:40.625Z,1024.67
2022-11-26T09:49:40.610Z,1024.67
2022-11-26T09:50:40.603Z,1024.70
2022-11-26T09:51:40.586Z,1024.68
2022-11-26T09:52:40.592Z,1024.62
2022-11-26T09:53:40.552Z,1024.67
2022-11-26T09:54:40.799Z,1024.67
2022-11-26T09:55:40.529Z,1024.68
2022-11-26T09:56:40.522Z,1024.71
2022-11-26T09:57:40.528Z,1024.67
2022-11-26T09:58:40.499Z,1024.74
2022-11-26T09:59:40.605Z,1024.72
2022-11-26T10:00:40.571Z,1024.70
2022-11-26T10:01:40.609Z,1024.68
2022-11-26T10:02:40.491Z,1024.69
2022-11-26T10:03:40.469Z,1024.63
2022-11-26T10:04:40.809Z,1024.67
2022-11-26T10:05:40.429Z,1024.67
2022-11-26T10:06:40.409Z,1024.66
2022-11-26T10:07:40.472Z,1024.66
2022-11-26T10:08:40.404Z,1024.64
2022-11-26T10:09:40.374Z,1024.64
2022-11-26T10:10:40.365Z,1024.65
2022-11-26T10:11:40.354Z,1024.66
2022-11-26T10:12:56.596Z,1024.64
2022-11-26T10:13:41.369Z,1024.65
2022-11-26T10:14:40.806Z,1024.67
2022-11-26T10:15:40.338Z,1024.65
2022-11-26T10:16:40.432Z,1024.65
2022-11-26T10:17:40.288Z,1024.65
2022-11-26T10:18:40.301Z,1024.66
2022-11-26T10:19:40.260Z,1024.67
2022-11-26T10:20:40.264Z,1024.63
2022-11-26T10:22:00.030Z,1024.60
2022-11-26T10:22:41.228Z,1024.63
2022-11-26T10:23:40.238Z,1024.61
2022-11-26T10:24:40.706Z,1024.60
2022-11-26T10:25:40.193Z,1024.57
2022-11-26T10:26:40.196Z,1024.57
2022-11-26T10:27:40.182Z,1024.55
2022-11-26T10:28:40.165Z,1024.56
2022-11-26T10:29:40.161Z,1024.53
2022-11-26T10:30:40.185Z,1024.54
2022-11-26T10:31:40.253Z,1024.54
2022-11-26T10:32:40.117Z,1024.61
2022-11-26T10:33:40.116Z,1024.64
2022-11-26T10:34:40.158Z,1024.67
2022-11-26T10:35:40.092Z,1024.69
2022-11-26T10:36:40.084Z,1024.68
2022-11-26T10:37:40.070Z,1024.67
2022-11-26T10:38:40.049Z,1024.67
2022-11-26T10:39:40.062Z,1024.70
2022-11-26T10:40:40.051Z,1024.65
2022-11-26T10:41:40.009Z,1024.60
2022-11-26T10:42:40.017Z,1024.63
2022-11-26T10:43:40.001Z,1024.61
2022-11-26T10:44:40.574Z,1024.59
2022-11-26T10:45:39.983Z,1024.58
2022-11-26T10:46:40.026Z,1024.58
2022-11-26T10:47:39.963Z,1024.57
2022-11-26T10:48:39.940Z,1024.60
2022-11-26T10:49:39.938Z,1024.56
2022-11-26T10:50:47.692Z,1024.56
2022-11-26T10:51:40.895Z,1024.57
2022-11-26T10:52:39.890Z,1024.57
2022-11-26T10:53:39.879Z,1024.60
2022-11-26T10:54:40.042Z,1024.60
2022-11-26T10:55:39.865Z,1024.58
2022-11-26T10:56:39.902Z,1024.55
2022-11-26T10:57:39.835Z,1024.55
2022-11-26T10:58:39.822Z,1024.56
2022-11-26T10:59:40.011Z,1024.54
2022-11-26T11:00:39.833Z,1024.56
2022-11-26T11:01:39.894Z,1024.56
2022-11-26T11:02:39.827Z,1024.60
2022-11-26T11:04:08.478Z,1024.59
2022-11-26T11:04:40.771Z,1024.57
2022-11-26T11:05:39.739Z,1024.58
2022-11-26T11:06:39.770Z,1024.56
2022-11-26T11:07:39.797Z,1024.57
2022-11-26T11:08:39.725Z,1024.64
2022-11-26T11:09:39.709Z,1024.61
2022-11-26T11:10:39.708Z,1024.68
2022-11-26T11:11:39.694Z,1024.67
2022-11-26T11:12:39.668Z,1024.61
2022-11-26T11:13:39.671Z,1024.57
2022-11-26T11:14:43.026Z,1024.58
2022-11-26T11:15:39.628Z,1024.56
2022-11-26T11:16:39.737Z,1024.53
2022-11-26T11:17:39.615Z,1024.54
2022-11-26T11:18:39.597Z,1024.53
2022-11-26T11:19:39.605Z,1024.51
2022-11-26T11:20:39.572Z,1024.51
2022-11-26T11:21:43.815Z,1024.47
2022-11-26T11:22:40.581Z,1024.47
2022-11-26T11:24:07.191Z,1024.47
2022-11-26T11:24:40.981Z,1024.49
2022-11-26T11:25:39.588Z,1024.45
2022-11-26T11:26:39.509Z,1024.45
2022-11-26T11:27:39.507Z,1024.49
2022-11-26T11:28:39.499Z,1024.41
2022-11-26T11:29:39.485Z,1024.44
2022-11-26T11:30:39.475Z,1024.45
2022-11-26T11:31:39.505Z,1024.47
2022-11-26T11:32:39.466Z,1024.45
2022-11-26T11:33:39.453Z,1024.43
2022-11-26T11:34:39.682Z,1024.46
2022-11-26T11:35:39.427Z,1024.41
2022-11-26T11:36:39.397Z,1024.38
2022-11-26T11:37:39.394Z,1024.37
2022-11-26T11:38:39.405Z,1024.36
2022-11-26T11:39:39.458Z,1024.41
2022-11-26T11:40:39.354Z,1024.44
2022-11-26T11:41:39.354Z,1024.45
2022-11-26T11:42:39.329Z,1024.45
2022-11-26T11:43:39.339Z,1024.45
2022-11-26T11:44:39.672Z,1024.45
2022-11-26T11:45:39.318Z,1024.47
2022-11-26T11:46:39.286Z,1024.45
2022-11-26T11:47:39.284Z,1024.39
2022-11-26T11:48:39.295Z,1024.42
2022-11-26T11:49:39.258Z,1024.42
2022-11-26T11:50:39.250Z,1024.40
2022-11-26T11:51:39.241Z,1024.43
2022-11-26T11:52:39.245Z,1024.38
2022-11-26T11:53:39.215Z,1024.43
2022-11-26T11:54:39.508Z,1024.42
2022-11-26T11:55:39.177Z,1024.42
2022-11-26T11:56:39.213Z,1024.41
2022-11-26T11:57:39.158Z,1024.39
2022-11-26T11:58:39.169Z,1024.37
2022-11-26T11:59:39.147Z,1024.35
2022-11-26T12:00:39.154Z,1024.39
2022-11-26T12:01:39.241Z,1024.36
2022-11-26T12:02:39.101Z,1024.38
2022-11-26T12:03:39.101Z,1024.39
2022-11-26T12:04:39.462Z,1024.34
2022-11-26T12:05:39.096Z,1024.37
2022-11-26T12:06:39.076Z,1024.34
2022-11-26T12:07:39.171Z,1024.31
2022-11-26T12:08:39.035Z,1024.28
2022-11-26T12:09:39.038Z,1024.29
2022-11-26T12:10:39.502Z,1024.30
2022-11-26T12:11:39.002Z,1024.30
2022-11-26T12:12:38.992Z,1024.33
2022-11-26T12:13:38.978Z,1024.30
2022-11-26T12:14:38.978Z,1024.31
2022-11-26T12:15:38.956Z,1024.30
2022-11-26T12:16:39.071Z,1024.31
2022-11-26T12:17:38.944Z,1024.28
2022-11-26T12:18:38.938Z,1024.29
2022-11-26T12:19:38.926Z,1024.28
2022-11-26T12:20:38.906Z,1024.27
2022-11-26T12:21:38.903Z,1024.32
2022-11-26T12:22:38.878Z,1024.29
2022-11-26T12:23:38.884Z,1024.31
2022-11-26T12:24:39.295Z,1024.31
2022-11-26T12:25:38.842Z,1024.32
2022-11-26T12:26:38.863Z,1024.27
2022-11-26T12:27:38.830Z,1024.30
2022-11-26T12:28:38.815Z,1024.31
2022-11-26T12:29:38.796Z,1024.33
2022-11-26T12:30:38.789Z,1024.38
2022-11-26T12:31:38.796Z,1024.35
2022-11-26T12:32:38.786Z,1024.40
2022-11-26T12:33:38.763Z,1024.41
2022-11-26T12:34:38.933Z,1024.43
2022-11-26T12:35:38.741Z,1024.45
2022-11-26T12:36:38.734Z,1024.45
2022-11-26T12:37:38.719Z,1024.44
2022-11-26T12:38:38.712Z,1024.41
2022-11-26T12:39:38.735Z,1024.43
2022-11-26T12:40:38.692Z,1024.45
2022-11-26T12:41:38.687Z,1024.48
2022-11-26T12:42:38.702Z,1024.46
2022-11-26T12:43:38.637Z,1024.46
2022-11-26T12:44:39.122Z,1024.41
2022-11-26T12:45:38.717Z,1024.42
2022-11-26T12:46:38.623Z,1024.41
2022-11-26T12:47:38.609Z,1024.39
2022-11-26T12:48:38.591Z,1024.39
2022-11-26T12:49:38.573Z,1024.37
2022-11-26T12:50:39.502Z,1024.41
2022-11-26T12:51:38.551Z,1024.38
2022-11-26T12:52:38.566Z,1024.41
2022-11-26T12:53:38.535Z,1024.45
2022-11-26T12:54:38.822Z,1024.49
2022-11-26T12:55:38.523Z,1024.47
2022-11-26T12:56:38.508Z,1024.47
2022-11-26T12:57:38.484Z,1024.43
2022-11-26T12:58:38.502Z,1024.40
2022-11-26T12:59:38.468Z,1024.39
2022-11-26T13:00:38.466Z,1024.38
2022-11-26T13:01:38.528Z,1024.40
2022-11-26T13:02:38.499Z,1024.37
2022-11-26T13:03:38.481Z,1024.34
2022-11-26T13:04:38.632Z,1024.36
2022-11-26T13:05:38.402Z,1024.39
2022-11-26T13:06:38.394Z,1024.40
2022-11-26T13:07:38.418Z,1024.39
2022-11-26T13:08:38.386Z,1024.39
2022-11-26T13:09:38.749Z,1024.38
2022-11-26T13:10:38.350Z,1024.36
2022-11-26T13:11:38.359Z,1024.41
2022-11-26T13:12:38.315Z,1024.38
2022-11-26T13:13:38.310Z,1024.40
2022-11-26T13:14:38.689Z,1024.37
2022-11-26T13:15:38.283Z,1024.37
2022-11-26T13:16:38.309Z,1024.35
2022-11-26T13:17:38.254Z,1024.34
2022-11-26T13:18:38.287Z,1024.36
2022-11-26T13:19:38.500Z,1024.31
2022-11-26T13:20:38.225Z,1024.29
2022-11-26T13:21:38.221Z,1024.26
2022-11-26T13:22:38.215Z,1024.24
2022-11-26T13:23:38.240Z,1024.22
2022-11-26T13:24:38.524Z,1024.22
2022-11-26T13:25:38.176Z,1024.18
2022-11-26T13:26:38.170Z,1024.22
2022-11-26T13:27:38.177Z,1024.21
2022-11-26T13:28:38.139Z,1024.19
2022-11-26T13:29:38.150Z,1024.18
2022-11-26T13:30:38.125Z,1024.17
2022-11-26T13:31:38.139Z,1024.18
2022-11-26T13:32:38.104Z,1024.25
2022-11-26T13:33:38.214Z,1024.25
2022-11-26T13:34:38.474Z,1024.27
2022-11-26T13:35:38.094Z,1024.26
2022-11-26T13:36:38.047Z,1024.27
2022-11-26T13:37:38.044Z,1024.23
2022-11-26T13:38:38.050Z,1024.20
2022-11-26T13:39:38.010Z,1024.22
2022-11-26T13:40:38.019Z,1024.21
2022-11-26T13:41:37.985Z,1024.19
2022-11-26T13:42:37.991Z,1024.22
2022-11-26T13:43:38.012Z,1024.19
2022-11-26T13:44:38.418Z,1024.18
2022-11-26T13:45:37.994Z,1024.14
2022-11-26T13:46:37.924Z,1024.10
2022-11-26T13:47:37.950Z,1024.05
2022-11-26T13:48:37.906Z,1024.07
2022-11-26T13:49:37.898Z,1024.05
2022-11-26T13:50:37.883Z,1024.06
2022-11-26T13:51:37.892Z,1024.03
2022-11-26T13:52:37.873Z,1024.04
2022-11-26T13:53:37.880Z,1023.98
2022-11-26T13:54:38.237Z,1024.03
2022-11-26T13:55:37.832Z,1024.00
2022-11-26T13:56:37.828Z,1024.00
2022-11-26T13:57:37.823Z,1024.00
2022-11-26T13:58:37.817Z,1023.96
2022-11-26T13:59:37.822Z,1023.94
2022-11-26T14:00:37.777Z,1023.93
2022-11-26T14:01:37.866Z,1023.90
2022-11-26T14:02:37.845Z,1023.96
2022-11-26T14:03:37.755Z,1023.95
2022-11-26T14:04:38.098Z,1023.94
2022-11-26T14:05:37.732Z,1023.90
2022-11-26T14:06:37.718Z,1023.91
2022-11-26T14:07:37.782Z,1023.89
2022-11-26T14:08:37.708Z,1023.83
2022-11-26T14:09:38.080Z,1023.86
2022-11-26T14:10:37.673Z,1023.81
2022-11-26T14:11:37.653Z,1023.86
2022-11-26T14:12:37.640Z,1023.83
2022-11-26T14:13:37.659Z,1023.83
2022-11-26T14:14:38.006Z,1023.90
2022-11-26T14:15:37.625Z,1023.87
2022-11-26T14:16:37.659Z,1023.85
2022-11-26T14:17:37.595Z,1023.87
2022-11-26T14:18:37.592Z,1023.82
2022-11-26T14:19:37.568Z,1023.87
2022-11-26T14:20:37.565Z,1023.84
2022-11-26T14:21:37.552Z,1023.78
2022-11-26T14:22:37.539Z,1023.78
2022-11-26T14:23:37.550Z,1023.76
2022-11-26T14:24:37.664Z,1023.75
2022-11-26T14:25:37.506Z,1023.74
2022-11-26T14:26:37.503Z,1023.76
2022-11-26T14:27:37.473Z,1023.75
2022-11-26T14:28:37.469Z,1023.73
2022-11-26T14:29:37.466Z,1023.75
2022-11-26T14:30:37.432Z,1023.79
2022-11-26T14:31:37.519Z,1023.76
2022-11-26T14:32:37.412Z,1023.75
2022-11-26T14:33:37.430Z,1023.75
2022-11-26T14:34:37.980Z,1023.69
2022-11-26T14:35:37.396Z,1023.69
2022-11-26T14:36:37.364Z,1023.63
2022-11-26T14:37:37.371Z,1023.62
2022-11-26T14:38:37.370Z,1023.62
2022-11-26T14:39:37.380Z,1023.61
2022-11-26T14:40:37.319Z,1023.64
2022-11-26T14:41:37.329Z,1023.63
2022-11-26T14:42:37.298Z,1023.63
2022-11-26T14:43:37.315Z,1023.64
2022-11-26T14:44:37.664Z,1023.64
2022-11-26T14:45:37.343Z,1023.67
2022-11-26T14:46:37.270Z,1023.67
2022-11-26T14:47:37.268Z,1023.71
2022-11-26T14:48:37.308Z,1023.68
2022-11-26T14:49:37.237Z,1023.68
2022-11-26T14:50:37.213Z,1023.66
2022-11-26T14:51:37.214Z,1023.66
2022-11-26T14:52:37.208Z,1023.67
2022-11-26T14:53:37.385Z,1023.65
2022-11-26T14:54:37.500Z,1023.62
2022-11-26T14:55:37.155Z,1023.65
2022-11-26T14:56:37.155Z,1023.62
2022-11-26T14:57:37.133Z,1023.59
2022-11-26T14:58:37.134Z,1023.57
2022-11-26T14:59:37.123Z,1023.60
2022-11-26T15:00:37.098Z,1023.66
2022-11-26T15:01:37.086Z,1023.72
2022-11-26T15:02:37.145Z,1023.73
2022-11-26T15:03:37.208Z,1023.73
2022-11-26T15:04:37.375Z,1023.74
2022-11-26T15:05:42.029Z,1023.72
2022-11-26T15:06:38.061Z,1023.74
2022-11-26T15:07:37.084Z,1023.76
2022-11-26T15:08:37.032Z,1023.77
2022-11-26T15:09:37.010Z,1023.80
2022-11-26T15:10:36.995Z,1023.82
2022-11-26T15:11:36.981Z,1023.84
2022-11-26T15:12:36.973Z,1023.85
2022-11-26T15:13:36.996Z,1023.87
2022-11-26T15:14:37.151Z,1023.85
2022-11-26T15:15:36.982Z,1023.81
2022-11-26T15:16:36.955Z,1023.82
2022-11-26T15:17:36.927Z,1023.78
2022-11-26T15:18:36.922Z,1023.78
2022-11-26T15:19:36.909Z,1023.78
2022-11-26T15:20:36.882Z,1023.76
2022-11-26T15:21:36.861Z,1023.77
2022-11-26T15:22:36.859Z,1023.71
2022-11-26T15:23:36.869Z,1023.70
2022-11-26T15:24:37.303Z,1023.73
2022-11-26T15:25:36.831Z,1023.69
2022-11-26T15:26:36.815Z,1023.69
2022-11-26T15:27:36.794Z,1023.69
2022-11-26T15:28:36.796Z,1023.67
2022-11-26T15:29:36.796Z,1023.71
2022-11-26T15:30:36.871Z,1023.70
2022-11-26T15:31:36.762Z,1023.69
2022-11-26T15:32:36.747Z,1023.64
2022-11-26T15:33:36.784Z,1023.67
2022-11-26T15:34:36.739Z,1023.69
2022-11-26T15:35:36.740Z,1023.70
2022-11-26T15:36:36.703Z,1023.73
2022-11-26T15:37:36.680Z,1023.69
2022-11-26T15:38:36.685Z,1023.73
2022-11-26T15:39:36.715Z,1023.71
2022-11-26T15:40:36.657Z,1023.67
2022-11-26T15:41:40.884Z,1023.68
2022-11-26T15:42:37.619Z,1023.67
2022-11-26T15:43:36.633Z,1023.65
2022-11-26T15:44:42.256Z,1023.66
2022-11-26T15:45:37.634Z,1023.63
2022-11-26T15:46:36.643Z,1023.62
2022-11-26T15:47:36.566Z,1023.64
2022-11-26T15:48:51.539Z,1023.67
2022-11-26T15:49:37.545Z,1023.68
2022-11-26T15:50:36.532Z,1023.70
2022-11-26T15:51:36.556Z,1023.73
2022-11-26T15:52:36.708Z,1023.72
2022-11-26T15:53:36.514Z,1023.74
2022-11-26T15:54:56.532Z,1023.73
2022-11-26T15:55:37.482Z,1023.69
2022-11-26T15:56:36.462Z,1023.77
2022-11-26T15:57:36.469Z,1023.78
2022-11-26T15:58:36.467Z,1023.69
2022-11-26T15:59:36.435Z,1023.79
2022-11-26T16:00:36.418Z,1023.77
2022-11-26T16:01:36.538Z,1023.73
2022-11-26T16:02:36.458Z,1023.67
2022-11-26T16:03:36.421Z,1023.63
2022-11-26T16:04:36.421Z,1023.62
2022-11-26T16:05:36.378Z,1023.61
2022-11-26T16:06:36.350Z,1023.61
2022-11-26T16:07:36.471Z,1023.70
2022-11-26T16:08:36.348Z,1023.71
2022-11-26T16:09:36.343Z,1023.75
2022-11-26T16:10:36.409Z,1023.75
2022-11-26T16:11:36.312Z,1023.76
2022-11-26T16:12:36.286Z,1023.73
2022-11-26T16:13:36.340Z,1023.73
2022-11-26T16:14:36.520Z,1023.77
2022-11-26T16:15:36.295Z,1023.75
2022-11-26T16:16:36.304Z,1023.77
2022-11-26T16:17:36.247Z,1023.76
2022-11-26T16:18:36.231Z,1023.75
2022-11-26T16:19:36.349Z,1023.79
2022-11-26T16:20:36.194Z,1023.79
2022-11-26T16:21:36.198Z,1023.77
2022-11-26T16:22:36.173Z,1023.78
2022-11-26T16:23:36.204Z,1023.73
2022-11-26T16:24:36.292Z,1023.76
2022-11-26T16:25:36.155Z,1023.75
2022-11-26T16:26:36.142Z,1023.73
2022-11-26T16:27:36.146Z,1023.73
2022-11-26T16:28:36.116Z,1023.70
2022-11-26T16:29:36.115Z,1023.71
2022-11-26T16:30:36.209Z,1023.73
2022-11-26T16:31:36.102Z,1023.64
2022-11-26T16:32:36.079Z,1023.67
2022-11-26T16:33:36.079Z,1023.70
2022-11-26T16:34:36.131Z,1023.67
2022-11-26T16:35:50.441Z,1023.65
2022-11-26T16:36:37.022Z,1023.67
2022-11-26T16:37:36.018Z,1023.67
2022-11-26T16:38:36.002Z,1023.60
2022-11-26T16:40:36.966Z,1023.62
2022-11-26T16:41:35.962Z,1023.59
2022-11-26T16:42:35.963Z,1023.56
2022-11-26T16:43:35.952Z,1023.61
2022-11-26T16:44:35.934Z,1023.60
2022-11-26T16:45:35.928Z,1023.61
2022-11-26T16:46:35.975Z,1023.66
2022-11-26T16:47:35.895Z,1023.68
2022-11-26T16:48:35.894Z,1023.70
2022-11-26T16:49:35.913Z,1023.71
2022-11-26T16:50:35.859Z,1023.68
2022-11-26T16:51:35.857Z,1023.70
2022-11-26T16:52:35.846Z,1023.72
2022-11-26T16:53:35.844Z,1023.73
2022-11-26T16:54:35.836Z,1023.75
2022-11-26T16:55:35.841Z,1023.75
2022-11-26T16:56:35.791Z,1023.81
2022-11-26T16:57:35.779Z,1023.84
2022-11-26T16:58:35.779Z,1023.83
2022-11-26T16:59:35.774Z,1023.90
2022-11-26T17:00:35.754Z,1023.85
2022-11-26T17:01:35.739Z,1023.85
2022-11-26T17:02:35.889Z,1023.84
2022-11-26T17:03:35.853Z,1023.84
2022-11-26T17:04:35.712Z,1023.82
2022-11-26T17:05:35.702Z,1023.84
2022-11-26T17:06:35.674Z,1023.86
2022-11-26T17:07:35.714Z,1023.84
2022-11-26T17:08:35.652Z,1023.85
2022-11-26T17:09:36.106Z,1023.84
2022-11-26T17:10:35.644Z,1023.84
2022-11-26T17:11:35.646Z,1023.80
2022-11-26T17:12:35.621Z,1023.81
2022-11-26T17:13:35.616Z,1023.79
2022-11-26T17:14:35.595Z,1023.80
2022-11-26T17:15:35.595Z,1023.81
2022-11-26T17:16:35.651Z,1023.82
2022-11-26T17:17:35.567Z,1023.83
2022-11-26T17:18:35.543Z,1023.87
2022-11-26T17:19:35.562Z,1023.86
2022-11-26T17:20:35.515Z,1023.79
2022-11-26T17:21:35.507Z,1023.86
2022-11-26T17:22:35.509Z,1023.80
2022-11-26T17:23:35.499Z,1023.85
2022-11-26T17:24:35.495Z,1023.85
2022-11-26T17:25:35.476Z,1023.83
2022-11-26T17:26:35.453Z,1023.84
2022-11-26T17:27:36.105Z,1023.82
2022-11-26T17:28:35.438Z,1023.80
2022-11-26T17:29:41.091Z,1023.81
2022-11-26T17:30:36.457Z,1023.81
2022-11-26T17:31:35.459Z,1023.81
2022-11-26T17:32:35.415Z,1023.78
2022-11-26T17:33:35.376Z,1023.76
2022-11-26T17:34:35.373Z,1023.76
2022-11-26T17:35:35.368Z,1023.72
2022-11-26T17:36:36.963Z,1023.77
2022-11-26T17:37:35.329Z,1023.76